createdAt,value
2022-09-21T00:01:23.311Z,100789.25
2022-09-21T00:03:58.804Z,100799.84
2022-09-21T00:06:27.561Z,100805.12
2022-09-21T00:08:55.574Z,100806.94
2022-09-21T00:11:26.188Z,100810.44
2022-09-21T00:13:55.377Z,100811.34
2022-09-21T00:16:23.952Z,100806.91
2022-09-21T00:18:50.853Z,100807.81
2022-09-21T00:21:18.290Z,100810.47
2022-09-21T00:23:45.787Z,100814.00
2022-09-21T00:26:15.690Z,100814.00
2022-09-21T00:28:43.776Z,100812.25
2022-09-21T00:31:12.685Z,100818.41
2022-09-21T00:33:40.943Z,100819.28
2022-09-21T00:36:14.234Z,100822.81
2022-09-21T00:38:41.709Z,100821.91
2022-09-21T00:41:10.352Z,100820.16
2022-09-21T00:43:40.888Z,100816.66
2022-09-21T00:46:16.317Z,100820.16
2022-09-21T00:48:43.609Z,100816.66
2022-09-21T00:51:10.773Z,100814.00
2022-09-21T00:53:38.863Z,100818.41
2022-09-21T00:56:07.433Z,100812.25
2022-09-21T00:58:40.595Z,100817.50
2022-09-21T01:01:07.502Z,100818.41
2022-09-21T01:03:34.473Z,100827.19
2022-09-21T01:06:01.329Z,100818.38
2022-09-21T01:08:29.247Z,100823.69
2022-09-21T01:11:14.639Z,100826.31
2022-09-21T01:13:59.998Z,100830.72
2022-09-21T01:16:39.312Z,100827.19
2022-09-21T01:19:21.443Z,100829.84
2022-09-21T01:22:26.618Z,100827.19
2022-09-21T01:25:05.664Z,100834.25
2022-09-21T01:27:52.515Z,100824.56
2022-09-21T01:30:21.797Z,100819.28
2022-09-21T01:33:07.416Z,100816.63
2022-09-21T01:35:39.924Z,100831.59
2022-09-21T01:38:32.706Z,100836.00
2022-09-21T01:41:04.308Z,100837.75
2022-09-21T01:43:48.496Z,100840.41
2022-09-21T01:46:19.850Z,100837.75
2022-09-21T01:48:52.158Z,100836.87
2022-09-21T01:51:21.977Z,100843.94
2022-09-21T01:53:53.165Z,100843.06
2022-09-21T01:56:33.294Z,100839.53
2022-09-21T01:59:18.382Z,100839.53
2022-09-21T02:01:53.718Z,100841.28
2022-09-21T02:04:20.595Z,100841.28
2022-09-21T02:06:49.405Z,100829.84
2022-09-21T02:09:17.367Z,100838.66
2022-09-21T02:11:45.038Z,100846.59
2022-09-21T02:14:18.205Z,100835.12
2022-09-21T02:16:55.380Z,100843.91
2022-09-21T02:19:55.683Z,100844.78
2022-09-21T02:23:25.061Z,100850.94
2022-09-21T02:26:10.664Z,100847.41
2022-09-21T02:29:01.549Z,100851.81
2022-09-21T02:31:56.744Z,100849.19
2022-09-21T02:34:45.751Z,100850.91
2022-09-21T02:37:35.621Z,100858.84
2022-09-21T02:40:30.444Z,100850.94
2022-09-21T02:43:06.659Z,100853.59
2022-09-21T02:45:42.355Z,100857.09
2022-09-21T02:48:16.769Z,100857.97
2022-09-21T02:50:52.005Z,100857.97
2022-09-21T02:53:26.222Z,100864.09
2022-09-21T02:55:56.681Z,100863.22
2022-09-21T02:58:27.105Z,100852.66
2022-09-21T03:00:57.072Z,100864.94
2022-09-21T03:03:25.094Z,100867.56
2022-09-21T03:05:55.762Z,100870.19
2022-09-21T03:08:22.577Z,100866.66
2022-09-21T03:10:50.713Z,100867.50
2022-09-21T03:13:18.951Z,100870.19
2022-09-21T03:15:46.290Z,100870.16
2022-09-21T03:18:13.374Z,100873.66
2022-09-21T03:20:46.002Z,100876.28
2022-09-21T03:23:13.604Z,100877.16
2022-09-21T03:25:40.599Z,100881.53
2022-09-21T03:28:07.426Z,100878.03
2022-09-21T03:30:35.559Z,100880.66
2022-09-21T03:33:04.873Z,100878.00
2022-09-21T03:35:33.962Z,100882.44
2022-09-21T03:38:01.410Z,100885.97
2022-09-21T03:40:28.595Z,100886.84
2022-09-21T03:42:55.665Z,100880.69
2022-09-21T03:45:23.018Z,100897.38
2022-09-21T03:47:49.850Z,100885.06
2022-09-21T03:50:17.220Z,100883.31
2022-09-21T03:52:44.022Z,100889.44
2022-09-21T03:55:10.777Z,100893.81
2022-09-21T03:57:38.460Z,100892.94
2022-09-21T04:00:09.199Z,100893.78
2022-09-21T04:02:37.501Z,100898.22
2022-09-21T04:05:04.618Z,100895.59
2022-09-21T04:07:35.175Z,100891.19
2022-09-21T04:10:04.049Z,100899.13
2022-09-21T04:12:31.278Z,100906.16
2022-09-21T04:14:58.278Z,100898.28
2022-09-21T04:17:25.082Z,100903.59
2022-09-21T04:19:52.122Z,100910.59
2022-09-21T04:22:19.043Z,100910.63
2022-09-21T04:24:45.938Z,100905.41
2022-09-21T04:27:12.956Z,100911.53
2022-09-21T04:29:39.793Z,100918.56
2022-09-21T04:32:07.030Z,100914.19
2022-09-21T04:34:33.777Z,100915.94
2022-09-21T04:37:00.559Z,100915.00
2022-09-21T04:39:27.365Z,100925.53
2022-09-21T04:41:54.402Z,100917.63
2022-09-21T04:44:21.198Z,100922.03
2022-09-21T04:46:48.064Z,100922.94
2022-09-21T04:49:14.824Z,100924.75
2022-09-21T04:51:41.720Z,100923.00
2022-09-21T04:54:08.547Z,100923.91
2022-09-21T04:56:38.190Z,100919.53
2022-09-21T04:59:05.304Z,100925.69
2022-09-21T05:01:32.265Z,100926.56
2022-09-21T05:04:01.875Z,100937.97
2022-09-21T05:06:33.766Z,100937.97
2022-09-21T05:09:19.457Z,100930.06
2022-09-21T05:11:46.565Z,100928.31
2022-09-21T05:14:13.476Z,100929.25
2022-09-21T05:16:40.360Z,100929.25
2022-09-21T05:19:07.633Z,100942.47
2022-09-21T05:21:34.677Z,100935.44
2022-09-21T05:24:01.834Z,100939.00
2022-09-21T05:26:28.620Z,100939.88
2022-09-21T05:28:55.753Z,100932.84
2022-09-21T05:31:36.155Z,100938.13
2022-09-21T05:34:18.978Z,100938.13
2022-09-21T05:37:18.441Z,100924.00
2022-09-21T05:39:45.801Z,100939.88
2022-09-21T05:42:13.108Z,100949.59
2022-09-21T05:44:40.220Z,100940.78
2022-09-21T05:47:38.456Z,100954.88
2022-09-21T05:50:23.776Z,100960.16
2022-09-21T05:53:09.476Z,100957.50
2022-09-21T05:55:56.727Z,100958.41
2022-09-21T05:58:32.518Z,100959.31
2022-09-21T06:01:11.452Z,100962.84
2022-09-21T06:03:39.288Z,100957.56
2022-09-21T06:06:09.011Z,100956.69
2022-09-21T06:08:35.952Z,100955.81
2022-09-21T06:11:02.858Z,100953.16
2022-09-21T06:13:29.743Z,100961.09
2022-09-21T06:15:57.114Z,100964.59
2022-09-21T06:18:23.893Z,100965.47
2022-09-21T06:20:50.716Z,100960.19
2022-09-21T06:23:17.563Z,100964.56
2022-09-21T06:25:44.394Z,100973.38
2022-09-21T06:28:13.226Z,100956.56
2022-09-21T06:30:42.422Z,100965.34
2022-09-21T06:33:09.829Z,100964.44
2022-09-21T06:35:36.955Z,100959.09
2022-09-21T06:38:06.690Z,100959.00
2022-09-21T06:40:35.347Z,100965.09
2022-09-21T06:43:04.656Z,100963.31
2022-09-21T06:45:31.677Z,100960.62
2022-09-21T06:47:58.867Z,100959.72
2022-09-21T06:53:15.602Z,100963.06
2022-09-21T06:55:42.663Z,100967.31
2022-09-21T06:58:11.437Z,100968.91
2022-09-21T07:00:38.406Z,100945.81
2022-09-21T07:03:05.853Z,100947.41
2022-09-21T07:05:34.226Z,100977.97
2022-09-21T07:08:01.405Z,100973.22
2022-09-21T07:10:28.724Z,100947.34
2022-09-21T07:12:55.918Z,100971.69
2022-09-21T07:15:23.717Z,100941.19
2022-09-21T07:17:52.260Z,100970.28
2022-09-21T07:20:19.550Z,100944.72
2022-09-21T07:23:08.529Z,100948.09
2022-09-21T07:25:35.282Z,100973.16
2022-09-21T07:28:02.631Z,100932.81
2022-09-21T07:30:29.416Z,100961.03
2022-09-21T07:32:56.324Z,100941.75
2022-09-21T07:35:23.156Z,100965.63
2022-09-21T07:37:50.078Z,100971.69
2022-09-21T07:40:17.888Z,100956.38
2022-09-21T07:42:46.624Z,100960.19
2022-09-21T07:45:13.545Z,100920.16
2022-09-21T07:47:40.377Z,100950.88
2022-09-21T07:50:07.548Z,100967.56
2022-09-21T07:52:35.160Z,100928.16
2022-09-21T07:55:01.944Z,100936.66
2022-09-21T07:57:47.332Z,100897.44
2022-09-21T08:00:14.887Z,100973.78
2022-09-21T08:02:46.595Z,100972.72
2022-09-21T08:05:14.506Z,100970.50
2022-09-21T08:07:41.799Z,100961.56
2022-09-21T08:10:09.854Z,100914.87
2022-09-21T08:12:36.700Z,100963.19
2022-09-21T08:15:03.821Z,100972.34
2022-09-21T08:17:30.677Z,100949.91
2022-09-21T08:20:18.576Z,100989.75
2022-09-21T08:23:06.225Z,100978.97
2022-09-21T08:25:34.371Z,100976.81
2022-09-21T08:38:48.429Z,100970.69
2022-09-21T08:41:40.688Z,100970.69
2022-09-21T08:44:16.645Z,100973.59
2022-09-21T08:46:46.396Z,100970.69
2022-09-21T08:49:19.878Z,100979.63
2022-09-21T08:52:00.624Z,100977.41
2022-09-21T08:54:42.449Z,100974.53
2022-09-21T08:57:16.316Z,100977.28
2022-09-21T08:59:46.268Z,100962.91
2022-09-21T09:02:44.144Z,100967.97
2022-09-21T09:05:35.934Z,100965.19
2022-09-21T09:08:22.020Z,100969.03
2022-09-21T09:11:25.111Z,100966.78
2022-09-21T09:14:11.724Z,100963.81
2022-09-21T09:16:38.513Z,100962.87
2022-09-21T09:19:32.793Z,100970.28
2022-09-21T09:22:04.407Z,100967.19
2022-09-21T09:24:41.503Z,100973.53
2022-09-21T09:27:18.818Z,100965.66
2022-09-21T09:30:03.904Z,100969.75
2022-09-21T09:32:44.233Z,100963.09
2022-09-21T09:35:28.692Z,100957.00
2022-09-21T09:38:00.028Z,100963.31
2022-09-21T09:41:01.435Z,100954.22
2022-09-21T09:43:40.250Z,100955.72
2022-09-21T09:46:21.955Z,100957.47
2022-09-21T09:49:18.846Z,100958.22
2022-09-21T09:51:46.713Z,100941.22
2022-09-21T09:54:16.067Z,100954.31
2022-09-21T09:56:43.838Z,100955.63
2022-09-21T09:59:19.996Z,100949.88
2022-09-21T10:01:47.511Z,100935.88
2022-09-21T10:04:17.721Z,100939.47
2022-09-21T10:06:46.684Z,100928.72
2022-09-21T10:09:32.585Z,100936.19
2022-09-21T10:12:15.744Z,100934.12
2022-09-21T10:14:49.635Z,100927.38
2022-09-21T10:17:18.673Z,100933.44
2022-09-21T10:19:46.212Z,100932.44
2022-09-21T10:22:19.062Z,100924.78
2022-09-21T10:24:56.343Z,100929.78
2022-09-21T10:27:45.138Z,100925.47
2022-09-21T10:30:34.977Z,100921.31
2022-09-21T10:33:02.276Z,100930.22
2022-09-21T10:35:29.996Z,100920.25
2022-09-21T10:38:22.605Z,100920.81
2022-09-21T10:40:50.440Z,100918.84
2022-09-21T10:43:43.673Z,100912.50
2022-09-21T10:46:11.720Z,100912.19
2022-09-21T10:48:38.851Z,100903.78
2022-09-21T10:51:05.868Z,100918.84
2022-09-21T10:53:36.190Z,100916.34
2022-09-21T10:56:15.617Z,100905.00
2022-09-21T10:59:20.761Z,100920.19
2022-09-21T11:01:50.486Z,100909.25
2022-09-21T11:04:36.243Z,100907.19
2022-09-21T11:07:25.201Z,100904.28
2022-09-21T11:09:58.624Z,100906.53
2022-09-21T11:12:49.059Z,100907.16
2022-09-21T11:15:20.316Z,100899.69
2022-09-21T11:18:18.654Z,100890.03
2022-09-21T11:20:58.517Z,100889.91
2022-09-21T11:24:02.501Z,100895.69
2022-09-21T11:26:37.903Z,100889.75
2022-09-21T11:32:19.326Z,100886.66
2022-09-21T11:35:17.028Z,100869.97
2022-09-21T11:37:50.273Z,100876.47
2022-09-21T11:41:14.288Z,100873.00
2022-09-21T11:44:19.338Z,100876.09
2022-09-21T11:47:02.929Z,100867.00
2022-09-21T11:49:37.852Z,100873.06
2022-09-21T11:52:47.465Z,100872.31
2022-09-21T11:55:44.557Z,100859.72
2022-09-21T11:58:23.279Z,100854.34
2022-09-21T12:00:51.359Z,100852.44
2022-09-21T12:03:36.181Z,100855.81
2022-09-21T12:06:32.762Z,100842.12
2022-09-21T12:09:24.529Z,100843.16
2022-09-21T12:11:57.615Z,100837.88
2022-09-21T12:14:45.942Z,100855.13
2022-09-21T12:17:27.860Z,100834.84
2022-09-21T12:20:12.906Z,100836.41
2022-09-21T12:22:44.303Z,100837.59
2022-09-21T12:25:17.183Z,100827.25
2022-09-21T12:27:50.622Z,100827.06
2022-09-21T12:30:22.647Z,100835.66
2022-09-21T12:32:58.313Z,100828.72
2022-09-21T12:35:39.420Z,100831.69
2022-09-21T12:38:16.485Z,100822.78
2022-09-21T12:40:57.737Z,100830.44
2022-09-21T12:43:58.701Z,100828.38
2022-09-21T12:46:37.953Z,100839.44
2022-09-21T12:49:28.323Z,100818.34
2022-09-21T12:52:00.817Z,100826.72
2022-09-21T12:54:30.457Z,100825.72
2022-09-21T12:57:38.168Z,100819.78
2022-09-21T13:00:07.457Z,100803.94
2022-09-21T13:02:42.010Z,100811.34
2022-09-21T13:05:35.146Z,100811.25
2022-09-21T13:08:14.170Z,100816.84
2022-09-21T13:11:05.324Z,100817.88
2022-09-21T13:13:38.945Z,100804.62
2022-09-21T13:16:07.931Z,100800.16
2022-09-21T13:18:37.983Z,100799.94
2022-09-21T13:21:40.460Z,100800.47
2022-09-21T13:24:26.174Z,100802.09
2022-09-21T13:26:56.143Z,100799.87
2022-09-21T13:29:22.989Z,100794.62
2022-09-21T13:32:14.362Z,100799.69
2022-09-21T13:34:42.963Z,100796.03
2022-09-21T13:37:11.165Z,100803.34
2022-09-21T13:40:01.340Z,100797.62
2022-09-21T13:42:34.898Z,100810.22
2022-09-21T13:45:14.993Z,100796.56
2022-09-21T13:47:44.363Z,100787.09
2022-09-21T13:50:43.077Z,100793.28
2022-09-21T13:53:23.788Z,100793.59
2022-09-21T13:56:12.010Z,100785.81
2022-09-21T13:58:48.032Z,100785.84
2022-09-21T14:01:42.477Z,100783.31
2022-09-21T14:04:39.486Z,100782.44
2022-09-21T14:07:08.107Z,100777.41
2022-09-21T14:09:53.690Z,100782.87
2022-09-21T14:12:25.143Z,100782.56
2022-09-21T14:15:12.589Z,100784.62
2022-09-21T14:17:40.989Z,100781.75
2022-09-21T14:20:30.296Z,100785.25
2022-09-21T14:23:16.410Z,100787.66
2022-09-21T14:25:56.875Z,100788.91
2022-09-21T14:28:51.325Z,100784.22
2022-09-21T14:31:34.399Z,100791.19
2022-09-21T14:34:04.664Z,100789.06
2022-09-21T14:36:42.140Z,100790.66
2022-09-21T14:39:32.079Z,100792.72
2022-09-21T14:42:04.779Z,100781.34
2022-09-21T14:44:35.387Z,100796.91
2022-09-21T14:47:05.152Z,100790.28
2022-09-21T14:49:40.475Z,100788.09
2022-09-21T14:52:32.367Z,100795.84
2022-09-21T14:55:25.125Z,100793.75
2022-09-21T14:58:16.420Z,100792.72
2022-09-21T15:00:46.285Z,100787.84
2022-09-21T15:03:25.929Z,100793.00
2022-09-21T15:06:23.489Z,100792.69
2022-09-21T15:09:25.001Z,100789.47
2022-09-21T15:12:07.446Z,100802.34
2022-09-21T15:14:41.374Z,100798.25
2022-09-21T15:17:29.965Z,100802.97
2022-09-21T15:20:15.162Z,100801.38
2022-09-21T15:22:45.360Z,100796.34
2022-09-21T15:25:13.496Z,100810.19
2022-09-21T15:27:44.752Z,100804.31
2022-09-21T15:30:24.544Z,100805.06
2022-09-21T15:32:56.674Z,100804.62
2022-09-21T15:35:32.684Z,100810.75
2022-09-21T15:38:01.386Z,100804.41
2022-09-21T15:40:32.598Z,100814.19
2022-09-21T15:43:01.121Z,100821.88
2022-09-21T15:45:37.278Z,100813.25
2022-09-21T15:48:13.542Z,100821.97
2022-09-21T15:50:43.203Z,100822.50
2022-09-21T15:53:22.004Z,100826.87
2022-09-21T15:55:49.638Z,100822.88
2022-09-21T15:58:46.035Z,100829.69
2022-09-21T16:01:16.190Z,100831.97
2022-09-21T16:03:43.820Z,100832.00
2022-09-21T16:06:45.260Z,100836.34
2022-09-21T16:09:23.948Z,100841.78
2022-09-21T16:11:54.251Z,100843.03
2022-09-21T16:14:40.654Z,100845.19
2022-09-21T16:17:13.612Z,100847.31
2022-09-21T16:19:59.809Z,100842.66
2022-09-21T16:22:38.051Z,100857.09
2022-09-21T16:25:19.400Z,100861.72
2022-09-21T16:27:53.917Z,100860.81
2022-09-21T16:30:42.564Z,100864.66
2022-09-21T16:33:39.244Z,100868.69
2022-09-21T16:36:26.032Z,100870.06
2022-09-21T16:38:56.545Z,100873.09
2022-09-21T16:41:32.296Z,100870.91
2022-09-21T16:44:00.557Z,100868.41
2022-09-21T16:46:27.683Z,100875.59
2022-09-21T16:48:57.433Z,100875.91
2022-09-21T16:51:27.086Z,100876.38
2022-09-21T16:53:55.969Z,100878.25
2022-09-21T16:56:22.925Z,100875.97
2022-09-21T16:58:49.758Z,100880.78
2022-09-21T17:01:20.794Z,100876.59
2022-09-21T17:03:48.195Z,100886.50
2022-09-21T17:06:21.644Z,100872.66
2022-09-21T17:08:49.692Z,100880.94
2022-09-21T17:11:20.048Z,100881.75
2022-09-21T17:13:48.158Z,100876.81
2022-09-21T17:16:18.938Z,100882.13
2022-09-21T17:18:51.497Z,100894.00
2022-09-21T17:21:18.311Z,100886.12
2022-09-21T17:23:45.470Z,100877.59
2022-09-21T17:26:19.397Z,100898.84
2022-09-21T17:28:46.299Z,100900.72
2022-09-21T17:31:16.420Z,100885.94
2022-09-21T17:33:43.635Z,100914.34
2022-09-21T17:36:14.878Z,100917.19
2022-09-21T17:38:42.505Z,100916.44
2022-09-21T17:41:22.058Z,100922.88
2022-09-21T17:44:03.589Z,100922.81
2022-09-21T17:46:42.948Z,100925.75
2022-09-21T17:49:11.440Z,100934.41
2022-09-21T17:51:57.226Z,100921.34
2022-09-21T17:54:24.333Z,100935.66
2022-09-21T17:56:58.055Z,100934.91
2022-09-21T17:59:35.015Z,100938.66
2022-09-21T18:02:03.586Z,100938.59
2022-09-21T18:04:34.682Z,100941.44
2022-09-21T18:07:03.301Z,100940.66
2022-09-21T18:09:30.495Z,100936.34
2022-09-21T18:12:18.233Z,100943.66
2022-09-21T18:14:53.049Z,100947.16
2022-09-21T18:17:25.838Z,100965.03
2022-09-21T18:20:31.419Z,100957.22
2022-09-21T18:23:19.470Z,100958.06
2022-09-21T18:25:49.955Z,100962.78
2022-09-21T18:28:31.556Z,100969.06
2022-09-21T18:31:25.152Z,100968.38
2022-09-21T18:33:56.909Z,100962.03
2022-09-21T18:36:42.748Z,100976.31
2022-09-21T18:39:31.411Z,100970.94
2022-09-21T18:42:22.570Z,100971.06
2022-09-21T18:45:10.624Z,100978.34
2022-09-21T18:47:48.338Z,100974.03
2022-09-21T18:50:22.362Z,100970.53
2022-09-21T18:53:06.578Z,100975.91
2022-09-21T18:55:33.844Z,100975.06
2022-09-21T18:58:01.499Z,100977.75
2022-09-21T19:00:35.147Z,100981.34
2022-09-21T19:03:22.644Z,100977.91
2022-09-21T19:06:07.732Z,100976.09
2022-09-21T19:08:43.565Z,100978.91
2022-09-21T19:11:22.849Z,100974.56
2022-09-21T19:14:07.545Z,100970.22
2022-09-21T19:16:40.097Z,100973.84
2022-09-21T19:19:19.891Z,100975.97
2022-09-21T19:22:12.091Z,100981.19
2022-09-21T19:25:16.626Z,100979.56
2022-09-21T19:27:57.309Z,100983.94
2022-09-21T19:30:24.374Z,100977.81
2022-09-21T19:32:53.235Z,100985.81
2022-09-21T19:35:28.893Z,100976.94
2022-09-21T19:37:58.309Z,100976.06
2022-09-21T19:40:32.418Z,100977.84
2022-09-21T19:43:13.392Z,100978.75
2022-09-21T19:45:45.161Z,100977.00
2022-09-21T19:48:15.661Z,100977.03
2022-09-21T19:50:54.711Z,100977.91
2022-09-21T19:53:41.116Z,100978.06
2022-09-21T19:56:33.141Z,100980.81
2022-09-21T19:59:19.781Z,100975.56
2022-09-21T20:01:53.679Z,100979.97
2022-09-21T20:04:48.911Z,100972.13
2022-09-21T20:07:21.724Z,100971.34
2022-09-21T20:10:24.753Z,100969.56
2022-09-21T20:13:13.180Z,100970.44
2022-09-21T20:15:49.802Z,100974.91
2022-09-21T20:18:41.563Z,100981.09
2022-09-21T20:21:13.871Z,100981.25
2022-09-21T20:23:41.251Z,100979.53
2022-09-21T20:26:26.254Z,100979.50
2022-09-21T20:28:54.312Z,100984.81
2022-09-21T20:31:26.333Z,100987.38
2022-09-21T20:33:53.161Z,100985.59
2022-09-21T20:36:20.074Z,100990.94
2022-09-21T20:38:46.905Z,100997.19
2022-09-21T20:41:16.428Z,100997.97
2022-09-21T20:43:43.456Z,101001.44
2022-09-21T20:46:11.483Z,101003.28
2022-09-21T20:48:38.469Z,100998.00
2022-09-21T20:51:06.251Z,101001.56
2022-09-21T20:53:34.184Z,101001.56
2022-09-21T20:56:02.059Z,100990.16
2022-09-21T20:58:30.275Z,101005.16
2022-09-21T21:01:04.245Z,100999.94
2022-09-21T21:03:31.172Z,100999.00
2022-09-21T21:06:12.239Z,100996.41
2022-09-21T21:08:39.432Z,100998.22
2022-09-21T21:11:06.845Z,100994.59
2022-09-21T21:13:33.914Z,100995.53
2022-09-21T21:16:00.853Z,100985.84
2022-09-21T21:18:27.758Z,100991.19
2022-09-21T21:20:54.571Z,100999.13
2022-09-21T21:23:21.441Z,100985.03
2022-09-21T21:25:49.111Z,100992.94
2022-09-21T21:28:16.029Z,100999.19
2022-09-21T21:30:42.852Z,100993.00
2022-09-21T21:33:10.235Z,100988.63
2022-09-21T21:35:37.515Z,100989.53
2022-09-21T21:38:04.302Z,100991.31
2022-09-21T21:40:31.446Z,100991.31
2022-09-21T21:42:58.172Z,100985.16
2022-09-21T21:45:24.989Z,100990.47
2022-09-21T21:47:51.826Z,100978.16
2022-09-21T21:50:18.631Z,100988.75
2022-09-21T21:52:45.483Z,100987.91
2022-09-21T21:55:12.552Z,100990.59
2022-09-21T21:57:40.051Z,100987.09
2022-09-21T22:00:08.948Z,100988.88
2022-09-21T22:02:35.896Z,100992.47
2022-09-21T22:05:02.712Z,100989.84
2022-09-21T22:07:29.684Z,100986.31
2022-09-21T22:09:56.446Z,100987.19
2022-09-21T22:12:23.367Z,100991.62
2022-09-21T22:14:50.162Z,100985.47
2022-09-21T22:17:16.990Z,100987.28
2022-09-21T22:19:44.065Z,100988.19
2022-09-21T22:22:10.886Z,100975.84
2022-09-21T22:24:37.608Z,100984.66
2022-09-21T22:27:04.549Z,100972.31
2022-09-21T22:29:31.488Z,100968.81
2022-09-21T22:31:58.358Z,100982.87
2022-09-21T22:34:25.318Z,100983.78
2022-09-21T22:36:52.115Z,100989.97
2022-09-21T22:39:18.904Z,100978.50
2022-09-21T22:41:45.628Z,100981.12
2022-09-21T22:44:12.434Z,100976.75
2022-09-21T22:46:39.406Z,100983.81
2022-09-21T22:49:06.421Z,100982.91
2022-09-21T22:51:33.876Z,100975.94
2022-09-21T22:54:01.613Z,100984.78
2022-09-21T22:56:30.794Z,100977.72
2022-09-21T22:59:03.665Z,100971.56
2022-09-21T23:01:33.444Z,100968.94
2022-09-21T23:04:03.072Z,100968.97
2022-09-21T23:06:33.476Z,100975.13
2022-09-21T23:09:02.422Z,100979.56
2022-09-21T23:11:33.203Z,100973.41
2022-09-21T23:14:00.735Z,100969.00
2022-09-21T23:16:28.984Z,100976.06
2022-09-21T23:18:57.551Z,100960.19
2022-09-21T23:21:27.371Z,100965.47
2022-09-21T23:24:02.407Z,100968.13
2022-09-21T23:26:32.170Z,100965.47
2022-09-21T23:29:01.333Z,100977.81
2022-09-21T23:31:29.869Z,100976.06
2022-09-21T23:33:59.863Z,100983.09
2022-09-21T23:36:28.881Z,100977.84
2022-09-21T23:38:56.000Z,100980.47
2022-09-21T23:41:34.458Z,100983.13
2022-09-21T23:44:01.835Z,100983.13
2022-09-21T23:46:32.390Z,100989.28
2022-09-21T23:49:00.066Z,100991.94
2022-09-21T23:51:27.551Z,100985.78
2022-09-21T23:53:54.945Z,100989.28
2022-09-21T23:56:23.467Z,100969.88
2022-09-21T23:58:50.990Z,100987.50
